createdAt,value
2017-05-01T00:01:27.030Z,8.96
2017-05-01T00:03:54.113Z,9.10
2017-05-01T00:06:21.069Z,9.92
2017-05-01T00:08:48.054Z,9.20
2017-05-01T00:11:15.792Z,8.72
2017-05-01T00:13:42.760Z,9.20
2017-05-01T00:16:10.044Z,9.68
2017-05-01T00:18:37.120Z,9.14
2017-05-01T00:21:04.076Z,10.20
2017-05-01T00:23:31.051Z,9.60
2017-05-01T00:25:58.810Z,10.46
2017-05-01T00:28:26.125Z,9.88
2017-05-01T00:30:53.126Z,9.20
2017-05-01T00:33:20.876Z,9.56
2017-05-01T00:35:48.643Z,9.54
2017-05-01T00:38:16.392Z,9.98
2017-05-01T00:40:43.597Z,9.94
2017-05-01T00:43:10.568Z,8.82
2017-05-01T00:45:37.528Z,8.44
2017-05-01T00:48:04.547Z,9.00
2017-05-01T00:50:31.528Z,10.68
2017-05-01T00:52:58.963Z,10.20
2017-05-01T00:55:25.922Z,10.14
2017-05-01T00:57:52.892Z,9.26
2017-05-01T01:00:19.849Z,8.82
2017-05-01T01:02:47.573Z,9.12
2017-05-01T01:05:14.566Z,9.66
2017-05-01T01:07:41.540Z,10.36
2017-05-01T01:10:15.160Z,10.12
2017-05-01T01:12:42.120Z,9.94
2017-05-01T01:15:09.124Z,10.92
2017-05-01T01:17:36.298Z,10.64
2017-05-01T01:20:03.324Z,10.88
2017-05-01T01:22:30.711Z,10.94
2017-05-01T01:24:57.710Z,9.54
2017-05-01T01:27:24.696Z,9.54
2017-05-01T01:29:51.750Z,10.16
2017-05-01T01:32:18.721Z,9.84
2017-05-01T01:34:46.031Z,9.60
2017-05-01T01:37:13.039Z,9.42
2017-05-01T01:39:40.817Z,9.86
2017-05-01T01:42:07.829Z,10.62
2017-05-01T01:44:34.900Z,9.12
2017-05-01T01:47:03.008Z,9.12
2017-05-01T01:49:30.013Z,10.52
2017-05-01T01:51:57.837Z,9.24
2017-05-01T01:54:24.864Z,9.22
2017-05-01T01:56:51.855Z,9.84
2017-05-01T01:59:20.001Z,10.10
2017-05-01T02:01:47.761Z,10.44
2017-05-01T02:04:14.779Z,9.04
2017-05-01T02:06:42.541Z,9.66
2017-05-01T02:09:10.278Z,9.18
2017-05-01T02:11:37.597Z,9.82
2017-05-01T02:14:04.628Z,10.28
2017-05-01T02:16:31.697Z,9.48
2017-05-01T02:18:58.733Z,10.78
2017-05-01T02:21:25.736Z,9.88
2017-05-01T02:23:52.763Z,11.34
2017-05-01T02:26:20.517Z,11.24
2017-05-01T02:28:47.861Z,9.86
2017-05-01T02:31:14.857Z,9.98
2017-05-01T02:33:41.906Z,12.02
2017-05-01T02:36:08.932Z,9.96
2017-05-01T02:38:35.920Z,10.68
2017-05-01T02:41:03.228Z,10.12
2017-05-01T02:43:30.216Z,10.72
2017-05-01T02:45:57.211Z,10.32
2017-05-01T02:48:24.344Z,10.74
2017-05-01T02:50:51.356Z,10.08
2017-05-01T02:53:18.850Z,10.90
2017-05-01T02:55:45.863Z,11.40
2017-05-01T02:58:12.833Z,11.46
2017-05-01T03:00:39.827Z,10.98
2017-05-01T03:03:07.601Z,10.64
2017-05-01T03:05:35.724Z,12.30
2017-05-01T03:08:02.841Z,10.10
2017-05-01T03:10:29.851Z,11.06
2017-05-01T03:12:57.183Z,11.08
2017-05-01T03:15:24.432Z,11.94
2017-05-01T03:17:51.438Z,11.04
2017-05-01T03:20:19.524Z,9.64
2017-05-01T03:22:46.540Z,11.50
2017-05-01T03:25:13.524Z,11.86
2017-05-01T03:27:41.156Z,11.16
2017-05-01T03:30:08.918Z,10.30
2017-05-01T03:32:36.212Z,10.92
2017-05-01T03:35:03.232Z,11.64
2017-05-01T03:37:30.229Z,10.70
2017-05-01T03:39:57.234Z,10.84
2017-05-01T03:42:24.255Z,11.24
2017-05-01T03:44:52.265Z,12.54
2017-05-01T03:47:19.263Z,13.00
2017-05-01T03:49:46.272Z,11.18
2017-05-01T03:52:14.221Z,11.86
2017-05-01T03:54:41.190Z,11.44
2017-05-01T03:57:08.554Z,13.50
2017-05-01T03:59:35.551Z,12.36
2017-05-01T04:02:03.292Z,11.34
2017-05-01T04:04:30.320Z,11.90
2017-05-01T04:06:57.303Z,12.52
2017-05-01T04:09:25.420Z,13.10
2017-05-01T04:11:52.426Z,12.26
2017-05-01T04:14:19.420Z,12.06
2017-05-01T04:16:46.466Z,12.42
2017-05-01T04:19:13.472Z,12.28
2017-05-01T04:21:41.432Z,11.90
2017-05-01T04:24:08.401Z,13.02
2017-05-01T04:26:35.409Z,12.34
2017-05-01T04:29:02.429Z,11.70
2017-05-01T04:31:29.450Z,11.78
2017-05-01T04:33:56.810Z,11.72
2017-05-01T04:36:23.851Z,13.18
2017-05-01T04:38:50.847Z,13.36
2017-05-01T04:41:17.835Z,12.04
2017-05-01T04:43:44.814Z,11.36
2017-05-01T04:46:12.084Z,13.06
2017-05-01T04:48:39.048Z,12.52
2017-05-01T04:51:06.876Z,11.28
2017-05-01T04:53:33.901Z,12.34
2017-05-01T04:56:00.896Z,12.56
2017-05-01T04:58:28.322Z,11.80
2017-05-01T05:00:55.324Z,12.14
2017-05-01T05:03:23.060Z,11.52
2017-05-01T05:05:50.089Z,12.96
2017-05-01T05:08:17.064Z,13.02
2017-05-01T05:10:45.199Z,12.32
2017-05-01T05:13:12.220Z,12.48
2017-05-01T05:15:39.207Z,13.14
2017-05-01T05:18:06.225Z,12.62
2017-05-01T05:20:33.215Z,12.54
2017-05-01T05:23:01.345Z,13.42
2017-05-01T05:25:28.317Z,12.88
2017-05-01T05:27:56.051Z,11.94
2017-05-01T05:30:23.132Z,13.48
2017-05-01T05:32:50.896Z,13.30
2017-05-01T05:35:19.030Z,11.94
2017-05-01T05:37:46.042Z,13.00
2017-05-01T05:40:13.029Z,12.48
2017-05-01T05:42:40.032Z,12.72
2017-05-01T05:45:07.201Z,13.00
2017-05-01T05:47:34.553Z,12.70
2017-05-01T05:50:01.555Z,13.78
2017-05-01T05:52:28.653Z,14.28
2017-05-01T05:54:55.671Z,13.88
2017-05-01T05:57:22.743Z,13.98
2017-05-01T05:59:50.104Z,15.52
2017-05-01T06:02:17.066Z,13.66
2017-05-01T06:04:44.029Z,14.20
2017-05-01T06:07:11.020Z,13.82
2017-05-01T06:09:37.962Z,15.12
2017-05-01T06:12:04.972Z,14.50
2017-05-01T06:14:33.085Z,13.72
2017-05-01T06:17:00.092Z,16.10
2017-05-01T06:19:27.064Z,13.12
2017-05-01T06:21:54.129Z,15.54
2017-05-01T06:24:21.122Z,15.50
2017-05-01T06:26:49.235Z,16.18
2017-05-01T06:29:16.279Z,15.48
2017-05-01T06:31:43.236Z,15.90
2017-05-01T06:34:10.245Z,16.44
2017-05-01T06:36:37.254Z,21.58
2017-05-01T06:39:05.393Z,15.76
2017-05-01T06:41:32.377Z,17.48
2017-05-01T06:44:00.130Z,16.60
2017-05-01T06:46:27.850Z,16.28
2017-05-01T06:48:54.896Z,15.56
2017-05-01T06:51:22.352Z,17.12
2017-05-01T06:53:49.334Z,17.68
2017-05-01T06:56:17.049Z,17.92
2017-05-01T06:58:44.044Z,15.28
2017-05-01T07:01:11.764Z,16.70
2017-05-01T07:03:39.100Z,15.92
2017-05-01T07:06:06.104Z,16.14
2017-05-01T07:08:33.838Z,15.82
2017-05-01T07:11:00.845Z,15.78
2017-05-01T07:13:27.821Z,16.02
2017-05-01T07:15:55.148Z,15.56
2017-05-01T07:18:22.209Z,13.48
2017-05-01T07:20:49.212Z,15.54
2017-05-01T07:23:16.965Z,16.52
2017-05-01T07:25:51.714Z,18.18
2017-05-01T07:28:18.713Z,15.76
2017-05-01T07:30:45.703Z,15.32
2017-05-01T07:33:13.100Z,16.94
2017-05-01T07:35:40.081Z,17.88
2017-05-01T07:38:07.827Z,16.36
2017-05-01T07:40:34.866Z,16.08
2017-05-01T07:43:01.849Z,18.02
2017-05-01T07:45:29.250Z,17.26
2017-05-01T07:47:56.222Z,16.48
2017-05-01T07:50:23.992Z,16.34
2017-05-01T07:52:51.027Z,18.68
2017-05-01T07:55:18.769Z,16.80
2017-05-01T07:57:46.088Z,16.00
2017-05-01T08:00:13.084Z,17.42
2017-05-01T08:02:40.798Z,17.20
2017-05-01T08:05:07.817Z,17.58
2017-05-01T08:07:34.788Z,15.18
2017-05-01T08:10:02.157Z,16.72
2017-05-01T08:12:29.146Z,16.98
2017-05-01T08:14:56.869Z,16.24
2017-05-01T08:17:23.890Z,16.22
2017-05-01T08:19:50.884Z,15.92
2017-05-01T08:22:18.207Z,16.10
2017-05-01T08:24:45.188Z,16.08
2017-05-01T08:27:12.155Z,16.06
2017-05-01T08:29:39.160Z,14.52
2017-05-01T08:32:06.146Z,16.62
2017-05-01T08:34:33.428Z,16.04
2017-05-01T08:37:00.444Z,14.76
2017-05-01T08:39:27.599Z,15.14
2017-05-01T08:41:54.606Z,16.78
2017-05-01T08:44:22.344Z,14.92
2017-05-01T08:46:49.933Z,15.86
2017-05-01T08:49:17.680Z,14.40
2017-05-01T08:51:45.649Z,16.52
2017-05-01T08:54:12.642Z,15.98
2017-05-01T08:56:39.632Z,15.38
2017-05-01T08:59:06.676Z,14.48
2017-05-01T09:01:33.658Z,14.90
2017-05-01T09:04:00.925Z,16.16
2017-05-01T09:06:27.897Z,14.54
2017-05-01T09:08:55.705Z,15.28
2017-05-01T09:11:22.729Z,15.38
2017-05-01T09:13:50.482Z,15.04
2017-05-01T09:16:17.521Z,15.06
2017-05-01T09:18:44.478Z,16.44
2017-05-01T09:21:11.896Z,15.36
2017-05-01T09:23:38.874Z,13.14
2017-05-01T09:26:06.613Z,14.44
2017-05-01T09:28:33.960Z,14.38
2017-05-01T09:31:00.971Z,14.46
2017-05-01T09:33:27.949Z,14.80
2017-05-01T09:35:55.395Z,15.10
2017-05-01T09:38:22.394Z,14.74
2017-05-01T09:40:49.480Z,15.18
2017-05-01T09:43:16.483Z,14.82
2017-05-01T09:45:43.574Z,14.88
2017-05-01T09:48:10.827Z,14.70
2017-05-01T09:50:37.797Z,14.42
2017-05-01T09:53:04.755Z,15.06
2017-05-01T09:55:31.745Z,13.30
2017-05-01T09:57:58.731Z,15.34
2017-05-01T10:00:26.047Z,13.86
2017-05-01T10:02:53.101Z,14.50
2017-05-01T10:05:20.096Z,15.94
2017-05-01T10:07:47.213Z,14.48
2017-05-01T10:10:14.245Z,15.36
2017-05-01T10:12:41.612Z,17.40
2017-05-01T10:15:08.584Z,13.20
2017-05-01T10:17:35.590Z,14.40
2017-05-01T10:20:02.619Z,16.78
2017-05-01T10:22:29.623Z,16.42
2017-05-01T10:24:57.028Z,14.82
2017-05-01T10:27:24.040Z,15.64
2017-05-01T10:29:51.034Z,15.06
2017-05-01T10:32:18.108Z,16.92
2017-05-01T10:34:45.121Z,16.60
2017-05-01T10:37:12.093Z,13.56
2017-05-01T10:39:39.105Z,15.16
2017-05-01T10:42:07.149Z,15.76
2017-05-01T10:44:34.150Z,16.04
2017-05-01T10:47:01.853Z,15.74
2017-05-01T10:49:28.857Z,15.90
2017-05-01T10:51:55.862Z,15.58
2017-05-01T10:54:23.101Z,14.94
2017-05-01T10:56:50.361Z,14.56
2017-05-01T10:59:17.824Z,14.78
2017-05-01T11:01:45.288Z,13.72
2017-05-01T11:04:12.429Z,14.40
2017-05-01T11:06:39.849Z,13.06
2017-05-01T11:09:06.815Z,13.78
2017-05-01T11:11:34.156Z,13.26
2017-05-01T11:14:01.149Z,14.44
2017-05-01T11:16:28.881Z,14.16
2017-05-01T11:18:55.885Z,13.18
2017-05-01T11:21:25.398Z,12.84
2017-05-01T11:23:55.193Z,14.24
2017-05-01T11:26:23.122Z,14.76
2017-05-01T11:28:50.845Z,13.84
2017-05-01T11:31:17.849Z,14.48
2017-05-01T11:33:44.842Z,14.10
2017-05-01T11:36:12.188Z,14.30
2017-05-01T11:38:39.196Z,15.14
2017-05-01T11:41:06.215Z,13.70
2017-05-01T11:43:34.000Z,15.02
2017-05-01T11:46:01.007Z,14.32
2017-05-01T11:48:28.335Z,13.80
2017-05-01T11:50:55.374Z,14.96
2017-05-01T11:53:22.399Z,14.68
2017-05-01T11:55:49.397Z,16.12
2017-05-01T11:58:16.507Z,15.18
2017-05-01T12:00:43.841Z,15.30
2017-05-01T12:03:11.187Z,14.26
2017-05-01T12:05:39.082Z,12.98
2017-05-01T12:08:07.764Z,12.40
2017-05-01T12:10:37.484Z,14.54
2017-05-01T12:13:06.078Z,14.02
2017-05-01T12:15:33.816Z,14.24
2017-05-01T12:18:00.802Z,12.56
2017-05-01T12:20:28.553Z,14.56
2017-05-01T12:22:56.292Z,12.86
2017-05-01T12:25:23.642Z,13.58
2017-05-01T12:27:50.638Z,14.16
2017-05-01T12:30:17.701Z,13.30
2017-05-01T12:32:44.685Z,15.60
2017-05-01T12:35:11.666Z,13.94
2017-05-01T12:37:39.809Z,14.10
2017-05-01T12:40:07.574Z,13.64
2017-05-01T12:42:35.300Z,12.86
2017-05-01T12:45:02.736Z,15.52
2017-05-01T12:47:29.724Z,14.26
2017-05-01T12:49:57.485Z,13.52
2017-05-01T12:52:24.506Z,14.12
2017-05-01T12:54:51.473Z,13.48
2017-05-01T12:57:18.466Z,14.14
2017-05-01T12:59:45.488Z,13.94
2017-05-01T13:02:13.596Z,14.44
2017-05-01T13:04:40.582Z,14.12
2017-05-01T13:07:07.598Z,13.32
2017-05-01T13:09:34.589Z,14.22
2017-05-01T13:12:02.348Z,13.86
2017-05-01T13:14:30.575Z,13.62
2017-05-01T13:16:57.722Z,12.76
2017-05-01T13:19:24.728Z,13.88
2017-05-01T13:21:51.721Z,10.76
2017-05-01T13:24:18.731Z,13.72
2017-05-01T13:26:47.041Z,14.18
2017-05-01T13:29:14.044Z,13.20
2017-05-01T13:31:41.012Z,12.34
2017-05-01T13:34:07.999Z,13.14
2017-05-01T13:36:35.733Z,13.08
2017-05-01T13:39:03.024Z,12.78
2017-05-01T13:41:30.009Z,12.54
2017-05-01T13:43:57.004Z,13.18
2017-05-01T13:46:24.745Z,12.98
2017-05-01T13:48:51.732Z,12.22
2017-05-01T13:51:19.129Z,11.50
2017-05-01T13:53:46.144Z,13.08
2017-05-01T13:56:13.125Z,14.68
2017-05-01T13:58:40.080Z,12.48
2017-05-01T14:01:07.090Z,12.78
2017-05-01T14:03:34.441Z,12.32
2017-05-01T14:06:01.394Z,12.28
2017-05-01T14:08:29.013Z,12.30
2017-05-01T14:10:56.096Z,12.40
2017-05-01T14:13:23.081Z,12.70
2017-05-01T14:15:50.493Z,13.50
2017-05-01T14:18:17.476Z,12.70
2017-05-01T14:20:44.464Z,13.10
2017-05-01T14:23:11.485Z,12.60
2017-05-01T14:25:38.525Z,12.88
2017-05-01T14:28:05.930Z,11.06
2017-05-01T14:30:32.989Z,11.90
2017-05-01T14:33:00.012Z,13.10
2017-05-01T14:35:27.032Z,14.96
2017-05-01T14:37:54.091Z,13.60
2017-05-01T14:40:21.456Z,12.04
2017-05-01T14:42:48.491Z,12.08
2017-05-01T14:45:15.514Z,11.34
2017-05-01T14:47:42.513Z,12.38
2017-05-01T14:50:09.511Z,12.88
2017-05-01T14:52:36.800Z,12.70
2017-05-01T14:55:03.805Z,12.10
2017-05-01T14:57:30.787Z,13.38
2017-05-01T14:59:57.815Z,12.68
2017-05-01T15:02:24.907Z,12.90
2017-05-01T15:04:52.333Z,11.50
2017-05-01T15:07:19.376Z,12.30
2017-05-01T15:09:46.409Z,12.36
2017-05-01T15:12:13.423Z,11.78
2017-05-01T15:14:40.411Z,13.28
2017-05-01T15:17:07.431Z,12.28
2017-05-01T15:19:34.419Z,13.70
2017-05-01T15:22:02.202Z,11.78
2017-05-01T15:24:29.232Z,11.50
2017-05-01T15:26:57.363Z,12.66
2017-05-01T15:29:24.369Z,12.14
2017-05-01T15:31:51.371Z,11.76
2017-05-01T15:34:18.406Z,12.48
2017-05-01T15:36:45.404Z,13.36
2017-05-01T15:39:12.430Z,12.40
2017-05-01T15:41:40.531Z,14.48
2017-05-01T15:44:07.540Z,11.64
2017-05-01T15:46:35.292Z,12.04
2017-05-01T15:49:03.088Z,12.50
2017-05-01T15:51:30.062Z,13.40
2017-05-01T15:53:57.309Z,12.80
2017-05-01T15:56:24.301Z,13.88
2017-05-01T15:58:51.280Z,14.20
2017-05-01T16:01:18.258Z,13.08
2017-05-01T16:03:45.268Z,12.72
2017-05-01T16:06:12.555Z,12.14
2017-05-01T16:08:39.538Z,12.12
2017-05-01T16:11:07.269Z,10.78
2017-05-01T16:13:34.275Z,12.88
2017-05-01T16:16:01.269Z,12.86
2017-05-01T16:18:28.689Z,12.74
2017-05-01T16:20:55.760Z,12.10
2017-05-01T16:23:22.938Z,11.00
2017-05-01T16:25:49.950Z,12.88
2017-05-01T16:28:16.947Z,11.82
2017-05-01T16:30:44.348Z,13.02
2017-05-01T16:33:11.376Z,11.54
2017-05-01T16:35:38.389Z,12.30
2017-05-01T16:38:05.408Z,11.04
2017-05-01T16:40:32.405Z,12.06
2017-05-01T16:42:59.792Z,11.76
2017-05-01T16:45:26.950Z,11.18
2017-05-01T16:47:53.978Z,11.60
2017-05-01T16:50:20.972Z,10.46
2017-05-01T16:52:48.798Z,10.88
2017-05-01T16:55:16.125Z,12.54
2017-05-01T16:57:50.117Z,10.64
2017-05-01T17:00:17.530Z,11.80
2017-05-01T17:02:44.523Z,10.12
2017-05-01T17:05:11.508Z,11.78
2017-05-01T17:07:38.849Z,10.56
2017-05-01T17:10:05.930Z,11.00
2017-05-01T17:12:32.922Z,9.86
2017-05-01T17:15:00.280Z,9.78
2017-05-01T17:17:27.288Z,11.28
2017-05-01T17:19:54.286Z,10.90
2017-05-01T17:22:21.800Z,10.78
2017-05-01T17:24:48.811Z,9.40
2017-05-01T17:27:16.003Z,10.34
2017-05-01T17:29:44.096Z,10.84
2017-05-01T17:32:11.197Z,9.88
2017-05-01T17:34:38.906Z,9.18
2017-05-01T17:37:06.270Z,8.26
2017-05-01T17:39:33.286Z,7.62
2017-05-01T17:42:00.347Z,8.10
2017-05-01T17:44:27.793Z,8.00
2017-05-01T17:46:54.793Z,7.44
2017-05-01T17:49:22.719Z,7.00
2017-05-01T17:51:50.127Z,7.24
2017-05-01T17:54:17.141Z,7.84
2017-05-01T17:56:44.180Z,6.80
2017-05-01T17:59:11.619Z,7.06
2017-05-01T18:01:38.718Z,8.02
2017-05-01T18:04:06.485Z,7.62
2017-05-01T18:06:33.875Z,6.90
2017-05-01T18:09:00.882Z,7.76
2017-05-01T18:11:28.632Z,8.10
2017-05-01T18:13:56.047Z,7.72
2017-05-01T18:16:23.172Z,8.88
2017-05-01T18:18:50.199Z,7.58
2017-05-01T18:21:17.670Z,6.96
2017-05-01T18:23:44.662Z,7.52
2017-05-01T18:26:11.644Z,8.06
2017-05-01T18:28:39.058Z,7.98
2017-05-01T18:31:06.043Z,8.14
2017-05-01T18:33:33.017Z,7.38
2017-05-01T18:36:00.377Z,6.62
2017-05-01T18:38:27.386Z,7.14
2017-05-01T18:40:55.166Z,6.38
2017-05-01T18:43:22.543Z,7.52
2017-05-01T18:45:49.514Z,7.02
2017-05-01T18:48:16.527Z,6.88
2017-05-01T18:50:43.926Z,5.62
2017-05-01T18:53:10.938Z,7.14
2017-05-01T18:55:37.945Z,6.24
2017-05-01T18:58:05.343Z,8.34
2017-05-01T19:00:32.334Z,6.40
2017-05-01T19:02:59.353Z,5.98
2017-05-01T19:05:26.901Z,6.62
2017-05-01T19:07:53.906Z,6.98
2017-05-01T19:10:20.857Z,6.20
2017-05-01T19:12:48.978Z,6.98
2017-05-01T19:15:15.952Z,7.70
2017-05-01T19:20:16.922Z,7.56
2017-05-01T19:22:44.696Z,7.12
2017-05-01T19:25:12.447Z,6.62
2017-05-01T19:27:39.774Z,7.56
2017-05-01T19:30:06.737Z,8.46
2017-05-01T19:32:33.712Z,5.86
2017-05-01T19:35:00.978Z,6.58
2017-05-01T19:37:28.708Z,6.36
2017-05-01T19:39:55.688Z,6.58
2017-05-01T19:42:23.807Z,6.50
2017-05-01T19:44:50.795Z,5.94
2017-05-01T19:47:18.504Z,5.88
2017-05-01T19:49:46.039Z,6.24
2017-05-01T19:52:13.944Z,6.12
2017-05-01T19:54:41.138Z,6.20
2017-05-01T19:57:08.539Z,7.12
2017-05-01T19:59:35.529Z,6.38
2017-05-01T20:02:03.288Z,6.54
2017-05-01T20:04:30.706Z,7.10
2017-05-01T20:06:57.776Z,6.44
2017-05-01T20:09:24.983Z,6.42
2017-05-01T20:11:52.682Z,6.66
2017-05-01T20:14:19.931Z,5.96
2017-05-01T20:16:47.264Z,6.24
2017-05-01T20:19:16.679Z,5.90
2017-05-01T20:21:44.437Z,5.94
2017-05-01T20:24:11.913Z,5.50
2017-05-01T20:26:40.203Z,6.10
2017-05-01T20:29:14.248Z,6.12
2017-05-01T20:31:42.732Z,5.98
2017-05-01T20:34:09.874Z,6.34
2017-05-01T20:36:37.069Z,5.38
2017-05-01T20:39:05.385Z,5.68
2017-05-01T20:41:33.398Z,6.36
2017-05-01T20:44:01.284Z,5.86
2017-05-01T20:46:28.757Z,6.08
2017-05-01T20:48:55.761Z,5.94
2017-05-01T20:51:23.484Z,5.84
2017-05-01T20:53:50.858Z,7.22
2017-05-01T20:56:17.861Z,6.36
2017-05-01T20:58:44.862Z,6.66
2017-05-01T21:01:12.148Z,5.70
2017-05-01T21:03:39.140Z,5.98
2017-05-01T21:06:06.092Z,6.36
2017-05-01T21:08:33.500Z,6.72
2017-05-01T21:11:00.493Z,5.98
2017-05-01T21:13:27.499Z,5.82
2017-05-01T21:15:54.855Z,7.10
2017-05-01T21:18:21.841Z,6.50
2017-05-01T21:20:48.843Z,6.12
2017-05-01T21:23:16.140Z,7.48
2017-05-01T21:25:43.136Z,7.06
2017-05-01T21:28:10.088Z,7.28
2017-05-01T21:30:37.460Z,6.34
2017-05-01T21:33:04.508Z,6.88
2017-05-01T21:35:31.483Z,6.08
2017-05-01T21:37:58.844Z,7.90
2017-05-01T21:40:26.563Z,8.34
2017-05-01T21:42:53.622Z,5.80
2017-05-01T21:45:20.960Z,7.38
2017-05-01T21:47:47.925Z,6.98
2017-05-01T21:50:14.892Z,6.66
2017-05-01T21:52:42.204Z,6.60
2017-05-01T21:55:09.180Z,6.20
2017-05-01T21:57:36.138Z,6.80
2017-05-01T22:00:03.461Z,7.12
2017-05-01T22:02:30.480Z,7.10
2017-05-01T22:04:57.500Z,6.58
2017-05-01T22:07:25.521Z,6.70
2017-05-01T22:09:52.551Z,7.10
2017-05-01T22:12:19.545Z,7.24
2017-05-01T22:14:46.869Z,6.74
2017-05-01T22:17:13.856Z,6.30
2017-05-01T22:19:40.804Z,6.70
2017-05-01T22:22:08.132Z,6.88
2017-05-01T22:24:35.175Z,5.92
2017-05-01T22:27:02.193Z,6.62
2017-05-01T22:29:29.485Z,6.74
2017-05-01T22:31:56.618Z,6.12
2017-05-01T22:34:24.380Z,6.52
2017-05-01T22:36:51.751Z,6.98
2017-05-01T22:39:18.720Z,7.64
2017-05-01T22:41:45.680Z,6.00
2017-05-01T22:44:13.096Z,6.44
2017-05-01T22:46:40.060Z,7.28
2017-05-01T22:49:07.062Z,6.06
2017-05-01T22:51:34.958Z,7.68
2017-05-01T22:54:01.938Z,7.96
2017-05-01T22:56:29.672Z,9.78
2017-05-01T22:58:57.025Z,7.16
2017-05-01T23:01:23.992Z,7.06
2017-05-01T23:03:51.016Z,7.66
2017-05-01T23:06:18.372Z,7.22
2017-05-01T23:08:45.356Z,6.88
2017-05-01T23:11:13.121Z,8.78
2017-05-01T23:13:41.240Z,6.90
2017-05-01T23:16:08.186Z,6.96
2017-05-01T23:18:35.153Z,5.90
2017-05-01T23:21:02.479Z,7.64
2017-05-01T23:23:29.483Z,7.02
2017-05-01T23:25:56.434Z,7.44
2017-05-01T23:28:23.830Z,10.22
2017-05-01T23:30:50.780Z,7.84
2017-05-01T23:33:17.776Z,7.62
2017-05-01T23:35:45.904Z,7.02
2017-05-01T23:38:12.876Z,7.22
2017-05-01T23:40:39.864Z,6.30
2017-05-01T23:43:07.254Z,7.00
2017-05-01T23:45:34.245Z,7.82
2017-05-01T23:48:01.215Z,7.12
2017-05-01T23:50:29.276Z,10.44
2017-05-01T23:52:57.009Z,7.94
2017-05-01T23:55:24.032Z,9.02
2017-05-01T23:57:51.497Z,7.88
